createdAt,value
2024-02-13T00:00:27.979Z,5.27
2024-02-13T00:02:55.331Z,4.17
2024-02-13T00:05:22.457Z,6.30
2024-02-13T00:07:50.121Z,5.27
2024-02-13T00:10:17.406Z,5.03
2024-02-13T00:12:44.264Z,5.13
2024-02-13T00:15:19.706Z,4.07
2024-02-13T00:17:46.940Z,4.10
2024-02-13T00:20:15.321Z,5.20
2024-02-13T00:22:42.514Z,6.00
2024-02-13T00:25:10.261Z,4.27
2024-02-13T00:27:37.698Z,4.40
2024-02-13T00:30:05.398Z,3.40
2024-02-13T00:32:38.748Z,3.57
2024-02-13T00:35:10.149Z,3.90
2024-02-13T00:37:38.177Z,5.30
2024-02-13T00:40:07.121Z,5.90
2024-02-13T00:42:34.098Z,4.70
2024-02-13T00:45:01.914Z,3.17
2024-02-13T00:47:32.387Z,5.53
2024-02-13T00:49:59.741Z,5.03
2024-02-13T00:52:29.488Z,5.37
2024-02-13T00:54:57.221Z,4.00
2024-02-13T00:57:24.168Z,3.20
2024-02-13T00:59:51.246Z,3.93
2024-02-13T01:02:19.033Z,4.00
2024-02-13T01:04:45.936Z,4.37
2024-02-13T01:07:12.956Z,5.23
2024-02-13T01:09:39.669Z,4.67
2024-02-13T01:12:06.761Z,4.93
2024-02-13T01:14:33.727Z,3.07
2024-02-13T01:17:01.961Z,3.50
2024-02-13T01:19:28.812Z,3.60
2024-02-13T01:21:55.583Z,6.07
2024-02-13T01:24:24.253Z,3.60
2024-02-13T01:26:51.060Z,3.93
2024-02-13T01:29:18.948Z,4.17
2024-02-13T01:31:47.555Z,4.67
2024-02-13T01:34:14.595Z,3.17
2024-02-13T01:36:41.385Z,4.53
2024-02-13T01:39:08.857Z,6.80
2024-02-13T01:41:35.734Z,4.13
2024-02-13T01:44:05.163Z,8.20
2024-02-13T01:46:32.348Z,4.43
2024-02-13T01:49:00.325Z,4.03
2024-02-13T01:51:34.016Z,4.63
2024-02-13T01:54:04.379Z,4.17
2024-02-13T01:56:34.789Z,4.33
2024-02-13T01:59:04.982Z,6.10
2024-02-13T02:01:33.389Z,3.83
2024-02-13T02:04:01.235Z,3.77
2024-02-13T02:06:28.389Z,3.73
2024-02-13T02:08:56.338Z,5.90
2024-02-13T02:11:26.205Z,4.27
2024-02-13T02:13:53.867Z,2.93
2024-02-13T02:16:20.694Z,5.93
2024-02-13T02:18:47.626Z,3.43
2024-02-13T02:21:15.675Z,3.67
2024-02-13T02:23:42.554Z,5.43
2024-02-13T02:26:09.415Z,6.07
2024-02-13T02:28:36.295Z,3.17
2024-02-13T02:31:03.034Z,3.77
2024-02-13T02:33:30.060Z,4.10
2024-02-13T02:35:57.056Z,6.60
2024-02-13T02:38:24.361Z,4.20
2024-02-13T02:40:51.219Z,5.20
2024-02-13T02:43:18.432Z,6.23
2024-02-13T02:45:46.657Z,4.67
2024-02-13T02:48:15.761Z,5.07
2024-02-13T02:50:43.302Z,3.80
2024-02-13T02:53:10.396Z,5.47
2024-02-13T02:55:37.188Z,3.20
2024-02-13T02:58:04.011Z,4.53
2024-02-13T03:00:30.950Z,3.57
2024-02-13T03:03:09.864Z,5.13
2024-02-13T03:05:36.909Z,3.47
2024-02-13T03:08:03.977Z,6.73
2024-02-13T03:10:30.706Z,3.63
2024-02-13T03:12:58.214Z,4.53
2024-02-13T03:15:26.827Z,3.23
2024-02-13T03:17:53.712Z,5.77
2024-02-13T03:20:21.555Z,3.17
2024-02-13T03:22:48.342Z,4.20
2024-02-13T03:25:15.161Z,3.47
2024-02-13T03:27:42.446Z,4.07
2024-02-13T03:30:11.264Z,4.30
2024-02-13T03:32:38.159Z,4.63
2024-02-13T03:35:05.147Z,3.17
2024-02-13T03:37:31.880Z,3.43
2024-02-13T03:39:58.626Z,6.43
2024-02-13T03:42:25.352Z,4.27
2024-02-13T03:44:52.135Z,4.00
2024-02-13T03:47:19.437Z,2.60
2024-02-13T03:49:46.929Z,3.77
2024-02-13T03:52:13.625Z,5.03
2024-02-13T03:54:40.376Z,3.00
2024-02-13T03:57:07.258Z,5.77
2024-02-13T03:59:34.281Z,4.47
2024-02-13T04:02:01.093Z,3.77
2024-02-13T04:04:27.866Z,4.07
2024-02-13T04:06:54.910Z,5.00
2024-02-13T04:09:21.791Z,4.57
2024-02-13T04:11:48.708Z,3.43
2024-02-13T04:14:15.766Z,4.10
2024-02-13T04:16:43.942Z,2.60
2024-02-13T04:19:12.648Z,2.97
2024-02-13T04:21:39.497Z,4.83
2024-02-13T04:24:09.625Z,6.37
2024-02-13T04:26:43.299Z,3.87
2024-02-13T04:29:10.485Z,4.70
2024-02-13T04:31:39.379Z,2.90
2024-02-13T04:34:07.339Z,3.70
2024-02-13T04:36:34.555Z,4.00
2024-02-13T04:39:01.494Z,3.53
2024-02-13T04:41:28.664Z,3.17
2024-02-13T04:43:55.740Z,6.03
2024-02-13T04:46:26.206Z,4.77
2024-02-13T04:48:53.860Z,2.50
2024-02-13T04:51:21.047Z,3.07
2024-02-13T04:53:48.106Z,4.60
2024-02-13T04:56:15.731Z,3.57
2024-02-13T04:58:43.013Z,3.30
2024-02-13T05:01:11.527Z,3.80
2024-02-13T05:04:04.234Z,6.27
2024-02-13T05:06:49.917Z,4.43
2024-02-13T05:09:16.929Z,5.47
2024-02-13T05:11:43.795Z,2.60
2024-02-13T05:14:10.932Z,3.97
2024-02-13T05:16:44.829Z,3.33
2024-02-13T05:19:11.549Z,2.83
2024-02-13T05:21:38.322Z,5.03
2024-02-13T05:24:05.302Z,3.53
2024-02-13T05:26:35.032Z,4.53
2024-02-13T05:29:03.061Z,4.17
2024-02-13T05:31:29.781Z,3.73
2024-02-13T05:33:56.618Z,10.37
2024-02-13T05:36:23.420Z,4.57
2024-02-13T05:38:51.960Z,6.40
2024-02-13T05:41:18.843Z,7.80
2024-02-13T05:43:45.661Z,5.43
2024-02-13T05:46:12.592Z,4.63
2024-02-13T05:48:42.149Z,5.63
2024-02-13T05:51:13.003Z,3.77
2024-02-13T05:53:43.474Z,4.47
2024-02-13T05:56:12.607Z,6.83
2024-02-13T05:58:39.847Z,3.97
2024-02-13T06:01:07.016Z,4.03
2024-02-13T06:03:34.184Z,6.20
2024-02-13T06:06:01.495Z,3.37
2024-02-13T06:08:28.620Z,4.53
2024-02-13T06:10:55.506Z,5.67
2024-02-13T06:13:22.507Z,2.93
2024-02-13T06:15:50.065Z,6.30
2024-02-13T06:18:17.852Z,4.67
2024-02-13T06:20:46.054Z,4.27
2024-02-13T06:23:12.922Z,4.90
2024-02-13T06:25:39.678Z,3.57
2024-02-13T06:28:07.209Z,5.20
2024-02-13T06:30:34.278Z,4.80
2024-02-13T06:33:02.007Z,4.30
2024-02-13T06:35:28.876Z,5.37
2024-02-13T06:37:56.093Z,4.77
2024-02-13T06:40:22.864Z,3.43
2024-02-13T06:42:49.551Z,5.33
2024-02-13T06:45:16.324Z,5.50
2024-02-13T06:47:43.153Z,6.07
2024-02-13T06:50:13.689Z,3.97
2024-02-13T06:52:41.830Z,5.47
2024-02-13T06:55:09.444Z,3.03
2024-02-13T06:57:37.101Z,3.63
2024-02-13T07:00:10.667Z,4.30
2024-02-13T07:02:38.103Z,6.20
2024-02-13T07:05:09.769Z,3.90
2024-02-13T07:07:45.174Z,6.70
2024-02-13T07:10:15.429Z,4.37
2024-02-13T07:12:42.788Z,6.20
2024-02-13T07:15:10.334Z,4.27
2024-02-13T07:17:48.528Z,8.67
2024-02-13T07:20:24.165Z,7.50
2024-02-13T07:22:51.215Z,4.60
2024-02-13T07:25:18.204Z,3.33
2024-02-13T07:27:44.934Z,7.83
2024-02-13T07:30:13.650Z,5.50
2024-02-13T07:32:41.069Z,4.93
2024-02-13T07:35:08.328Z,7.40
2024-02-13T07:37:35.507Z,6.73
2024-02-13T07:40:03.152Z,7.97
2024-02-13T07:42:30.542Z,6.57
2024-02-13T07:44:59.508Z,7.43
2024-02-13T07:47:28.000Z,8.27
2024-02-13T07:49:55.863Z,3.87
2024-02-13T07:52:25.760Z,3.90
2024-02-13T07:54:52.598Z,4.50
2024-02-13T07:57:19.807Z,4.73
2024-02-13T07:59:46.936Z,6.23
2024-02-13T08:02:14.422Z,6.10
2024-02-13T08:04:41.655Z,8.33
2024-02-13T08:07:09.826Z,7.20
2024-02-13T08:09:37.033Z,7.33
2024-02-13T08:12:06.198Z,6.23
2024-02-13T08:14:34.192Z,6.20
2024-02-13T08:17:01.650Z,4.93
2024-02-13T08:19:28.605Z,5.47
2024-02-13T08:21:55.449Z,5.33
2024-02-13T08:24:22.519Z,4.67
2024-02-13T08:26:49.954Z,5.73
2024-02-13T08:29:18.466Z,5.23
2024-02-13T08:31:45.665Z,6.17
2024-02-13T08:34:12.912Z,5.30
2024-02-13T08:36:40.393Z,6.00
2024-02-13T08:39:07.725Z,4.67
2024-02-13T08:41:34.864Z,5.37
2024-02-13T08:44:01.729Z,5.37
2024-02-13T08:46:28.640Z,5.07
2024-02-13T08:48:55.982Z,6.30
2024-02-13T08:51:29.382Z,6.63
2024-02-13T08:53:57.677Z,6.80
2024-02-13T08:56:24.707Z,4.47
2024-02-13T08:58:53.807Z,5.27
2024-02-13T09:01:23.704Z,4.33
2024-02-13T09:03:50.560Z,4.67
2024-02-13T09:06:18.448Z,6.67
2024-02-13T09:08:46.006Z,5.57
2024-02-13T09:11:16.174Z,4.40
2024-02-13T09:13:43.430Z,6.70
2024-02-13T09:16:13.594Z,5.43
2024-02-13T09:18:41.949Z,5.93
2024-02-13T09:21:09.458Z,4.57
2024-02-13T09:23:36.757Z,4.73
2024-02-13T09:26:05.229Z,3.83
2024-02-13T09:28:32.525Z,9.07
2024-02-13T09:30:59.608Z,5.03
2024-02-13T09:33:27.609Z,3.47
2024-02-13T09:35:55.246Z,3.50
2024-02-13T09:38:23.364Z,4.23
2024-02-13T09:40:51.213Z,5.30
2024-02-13T09:43:19.127Z,3.63
2024-02-13T09:45:46.527Z,4.20
2024-02-13T09:48:22.236Z,6.97
2024-02-13T09:50:51.738Z,9.03
2024-02-13T09:53:29.428Z,2.50
2024-02-13T09:55:59.897Z,3.57
2024-02-13T09:58:27.631Z,3.97
2024-02-13T10:00:58.519Z,3.50
2024-02-13T10:03:28.228Z,3.30
2024-02-13T10:05:55.380Z,4.90
2024-02-13T10:08:28.527Z,3.73
2024-02-13T10:11:01.913Z,5.13
2024-02-13T10:13:43.715Z,4.37
2024-02-13T10:16:22.084Z,3.30
2024-02-13T10:18:53.367Z,5.03
2024-02-13T10:21:20.958Z,4.87
2024-02-13T10:23:49.154Z,3.30
2024-02-13T10:26:16.917Z,3.30
2024-02-13T10:28:55.574Z,4.13
2024-02-13T10:31:27.142Z,4.93
2024-02-13T10:33:55.915Z,4.33
2024-02-13T10:36:23.978Z,2.57
2024-02-13T10:38:51.237Z,3.67
2024-02-13T10:41:23.753Z,3.93
2024-02-13T10:43:54.237Z,4.03
2024-02-13T10:46:24.545Z,3.03
2024-02-13T10:49:12.534Z,4.00
2024-02-13T10:51:41.790Z,3.03
2024-02-13T10:54:10.972Z,3.97
2024-02-13T10:56:41.564Z,2.93
2024-02-13T10:59:09.739Z,2.73
2024-02-13T11:01:37.184Z,2.33
2024-02-13T11:04:04.327Z,3.97
2024-02-13T11:06:33.780Z,5.53
2024-02-13T11:09:01.597Z,3.13
2024-02-13T11:11:29.259Z,3.33
2024-02-13T11:13:56.149Z,1.73
2024-02-13T11:16:23.602Z,5.17
2024-02-13T11:18:53.162Z,2.57
2024-02-13T11:21:26.319Z,2.47
2024-02-13T11:23:58.410Z,3.33
2024-02-13T11:26:32.126Z,2.87
2024-02-13T11:28:58.898Z,4.60
2024-02-13T11:31:30.356Z,3.33
2024-02-13T11:34:09.193Z,5.40
2024-02-13T11:36:37.004Z,3.00
2024-02-13T11:39:06.320Z,5.63
2024-02-13T11:41:35.016Z,4.67
2024-02-13T11:44:15.966Z,3.28
2024-02-13T11:46:51.972Z,3.00
2024-02-13T11:49:18.954Z,4.05
2024-02-13T11:51:46.806Z,1.70
2024-02-13T11:54:14.053Z,4.40
2024-02-13T11:56:41.043Z,3.20
2024-02-13T11:59:08.421Z,2.03
2024-02-13T12:01:38.033Z,2.97
2024-02-13T12:04:05.922Z,3.67
2024-02-13T12:06:33.113Z,1.63
2024-02-13T12:09:01.301Z,3.50
2024-02-13T12:11:30.063Z,1.83
2024-02-13T12:13:58.691Z,3.38
2024-02-13T12:16:25.769Z,7.47
2024-02-13T12:18:53.279Z,4.45
2024-02-13T12:21:20.224Z,2.78
2024-02-13T12:23:51.513Z,3.67
2024-02-13T12:26:18.831Z,1.60
2024-02-13T12:28:59.117Z,2.97
2024-02-13T12:31:31.493Z,1.20
2024-02-13T12:34:06.905Z,0.95
2024-02-13T12:36:35.548Z,1.92
2024-02-13T12:39:21.898Z,1.80
2024-02-13T12:41:53.034Z,1.20
2024-02-13T12:44:21.974Z,2.20
2024-02-13T12:46:52.331Z,2.35
2024-02-13T12:49:20.877Z,2.28
2024-02-13T12:51:47.744Z,4.13
2024-02-13T12:54:15.552Z,2.00
2024-02-13T12:56:42.494Z,2.30
2024-02-13T12:59:12.079Z,1.98
2024-02-13T13:01:46.007Z,3.38
2024-02-13T13:04:17.362Z,1.50
2024-02-13T13:06:46.031Z,1.02
2024-02-13T13:09:23.486Z,0.80
2024-02-13T13:11:55.213Z,3.47
2024-02-13T13:14:22.399Z,2.35
2024-02-13T13:16:49.348Z,1.30
2024-02-13T13:19:16.541Z,1.63
2024-02-13T13:21:44.012Z,1.52
2024-02-13T13:24:12.263Z,1.38
2024-02-13T13:26:42.780Z,2.08
2024-02-13T13:29:09.998Z,1.63
2024-02-13T13:31:44.008Z,2.83
2024-02-13T13:34:12.042Z,2.53
2024-02-13T13:36:40.992Z,4.30
2024-02-13T13:39:10.054Z,1.38
2024-02-13T13:41:41.070Z,2.72
2024-02-13T13:44:10.060Z,1.95
2024-02-13T13:46:37.017Z,3.55
2024-02-13T13:49:04.015Z,1.42
2024-02-13T13:51:30.963Z,1.48
2024-02-13T13:53:57.978Z,4.70
2024-02-13T13:56:24.833Z,6.55
2024-02-13T13:58:52.254Z,3.13
2024-02-13T14:01:19.469Z,1.65
2024-02-13T14:03:46.380Z,3.67
2024-02-13T14:06:13.394Z,4.57
2024-02-13T14:08:40.276Z,2.08
2024-02-13T14:11:08.287Z,2.92
2024-02-13T14:13:35.593Z,3.10
2024-02-13T14:16:02.411Z,1.67
2024-02-13T14:18:29.798Z,2.78
2024-02-13T14:20:57.372Z,4.32
2024-02-13T14:23:24.745Z,1.98
2024-02-13T14:25:52.199Z,2.63
2024-02-13T14:28:19.700Z,3.78
2024-02-13T14:30:47.373Z,3.08
2024-02-13T14:33:14.734Z,2.05
2024-02-13T14:35:43.647Z,3.03
2024-02-13T14:38:11.041Z,3.05
2024-02-13T14:40:40.313Z,2.40
2024-02-13T14:43:08.778Z,1.67
2024-02-13T14:45:40.391Z,2.30
2024-02-13T14:48:10.568Z,2.53
2024-02-13T14:50:39.652Z,3.67
2024-02-13T14:53:08.037Z,3.50
2024-02-13T14:55:35.117Z,6.78
2024-02-13T15:00:32.583Z,4.38
2024-02-13T15:03:01.352Z,2.58
2024-02-13T15:05:28.546Z,2.35
2024-02-13T15:07:55.779Z,3.95
2024-02-13T15:10:23.287Z,5.18
2024-02-13T15:12:51.293Z,5.00
2024-02-13T15:15:18.992Z,3.72
2024-02-13T15:17:47.269Z,2.92
2024-02-13T15:20:17.340Z,4.13
2024-02-13T15:22:45.353Z,3.10
2024-02-13T15:25:12.281Z,3.38
2024-02-13T15:27:41.866Z,2.20
2024-02-13T15:30:13.336Z,2.75
2024-02-13T15:32:44.472Z,2.60
2024-02-13T15:35:11.521Z,2.60
2024-02-13T15:37:57.145Z,3.22
2024-02-13T15:40:42.592Z,7.95
2024-02-13T15:43:27.934Z,3.65
2024-02-13T15:46:13.520Z,4.57
2024-02-13T15:48:41.356Z,4.47
2024-02-13T15:51:10.471Z,6.35
2024-02-13T15:53:38.806Z,7.32
2024-02-13T15:56:07.610Z,5.05
2024-02-13T15:58:34.389Z,6.75
2024-02-13T16:01:02.697Z,7.05
2024-02-13T16:03:29.846Z,4.97
2024-02-13T16:05:58.045Z,5.03
2024-02-13T16:08:26.512Z,4.63
2024-02-13T16:10:53.370Z,5.55
2024-02-13T16:13:21.744Z,6.13
2024-02-13T16:15:50.443Z,5.53
2024-02-13T16:18:17.297Z,5.57
2024-02-13T16:20:44.415Z,5.85
2024-02-13T16:23:11.265Z,5.75
2024-02-13T16:25:38.143Z,5.45
2024-02-13T16:28:06.932Z,5.43
2024-02-13T16:30:34.944Z,4.13
2024-02-13T16:33:02.753Z,3.40
2024-02-13T16:35:29.933Z,2.97
2024-02-13T16:37:57.374Z,3.55
2024-02-13T16:40:26.084Z,4.00
2024-02-13T16:42:57.740Z,2.35
2024-02-13T16:45:27.111Z,15.57
2024-02-13T16:47:54.117Z,19.25
2024-02-13T16:50:22.652Z,12.98
2024-02-13T16:52:50.041Z,13.68
2024-02-13T16:55:18.505Z,14.27
2024-02-13T16:57:46.397Z,9.20
2024-02-13T17:00:14.190Z,6.13
2024-02-13T17:02:41.443Z,6.25
2024-02-13T17:05:12.658Z,2.70
2024-02-13T17:07:43.119Z,3.97
2024-02-13T17:10:13.150Z,4.18
2024-02-13T17:12:40.954Z,4.82
2024-02-13T17:15:12.772Z,2.42
2024-02-13T17:17:40.777Z,4.45
2024-02-13T17:20:12.284Z,2.40
2024-02-13T17:22:42.927Z,3.28
2024-02-13T17:25:11.381Z,3.42
2024-02-13T17:27:40.547Z,4.40
2024-02-13T17:30:09.083Z,3.03
2024-02-13T17:32:40.122Z,3.65
2024-02-13T17:35:07.187Z,4.40
2024-02-13T17:37:33.979Z,2.92
2024-02-13T17:40:04.039Z,4.03
2024-02-13T17:42:31.227Z,12.68
2024-02-13T17:44:58.143Z,9.23
2024-02-13T17:47:26.212Z,18.45
2024-02-13T17:49:54.327Z,24.83
2024-02-13T17:52:21.256Z,21.27
2024-02-13T17:54:50.629Z,18.50
2024-02-13T17:57:17.365Z,18.33
2024-02-13T17:59:45.234Z,20.75
2024-02-13T18:02:12.162Z,17.95
2024-02-13T18:04:38.849Z,18.13
2024-02-13T18:07:05.758Z,14.82
2024-02-13T18:09:32.675Z,10.38
2024-02-13T18:12:06.456Z,12.68
2024-02-13T18:14:33.451Z,14.27
2024-02-13T18:17:01.798Z,8.18
2024-02-13T18:19:29.323Z,8.30
2024-02-13T18:21:58.588Z,6.60
2024-02-13T18:24:25.793Z,6.22
2024-02-13T18:26:53.425Z,6.20
2024-02-13T18:29:20.450Z,8.67
2024-02-13T18:31:47.442Z,7.57
2024-02-13T18:34:16.486Z,7.38
2024-02-13T18:36:45.331Z,6.83
2024-02-13T18:39:14.247Z,6.27
2024-02-13T18:41:41.782Z,6.37
2024-02-13T18:44:10.317Z,6.97
2024-02-13T18:46:37.269Z,4.43
2024-02-13T18:49:04.594Z,5.93
2024-02-13T18:51:31.809Z,9.18
2024-02-13T18:53:58.772Z,6.20
2024-02-13T18:56:28.197Z,8.23
2024-02-13T18:58:54.995Z,7.13
2024-02-13T19:01:22.915Z,9.80
2024-02-13T19:03:49.723Z,8.07
2024-02-13T19:06:16.659Z,8.90
2024-02-13T19:08:43.891Z,8.00
2024-02-13T19:11:10.889Z,6.07
2024-02-13T19:13:37.719Z,7.70
2024-02-13T19:16:04.787Z,6.77
2024-02-13T19:18:31.657Z,6.60
2024-02-13T19:20:59.358Z,6.10
2024-02-13T19:23:26.430Z,5.93
2024-02-13T19:25:53.251Z,7.23
2024-02-13T19:28:20.147Z,9.63
2024-02-13T19:30:50.437Z,19.03
2024-02-13T19:33:17.996Z,13.03
2024-02-13T19:35:46.298Z,12.27
2024-02-13T19:38:17.976Z,10.03
2024-02-13T19:40:45.996Z,8.90
2024-02-13T19:43:13.121Z,9.73
2024-02-13T19:45:43.742Z,6.90
2024-02-13T19:48:10.965Z,8.70
2024-02-13T19:50:39.728Z,8.10
2024-02-13T19:53:08.152Z,9.43
2024-02-13T19:55:37.357Z,7.43
2024-02-13T19:58:05.031Z,9.27
2024-02-13T20:00:34.043Z,7.47
2024-02-13T20:03:01.446Z,7.03
2024-02-13T20:05:29.083Z,7.07
2024-02-13T20:07:55.939Z,6.60
2024-02-13T20:10:22.929Z,6.27
2024-02-13T20:12:49.912Z,6.53
2024-02-13T20:15:17.209Z,7.03
2024-02-13T20:17:45.646Z,6.77
2024-02-13T20:20:15.992Z,8.40
2024-02-13T20:22:46.395Z,7.27
2024-02-13T20:25:16.548Z,8.03
2024-02-13T20:27:47.067Z,8.90
2024-02-13T20:30:15.652Z,9.20
2024-02-13T20:32:47.928Z,7.90
2024-02-13T20:35:15.198Z,9.10
2024-02-13T20:37:43.297Z,7.97
2024-02-13T20:40:12.767Z,10.30
2024-02-13T20:42:43.911Z,9.57
2024-02-13T20:45:21.067Z,7.20
2024-02-13T20:47:51.130Z,9.00
2024-02-13T20:50:18.251Z,6.63
2024-02-13T20:52:45.341Z,11.37
2024-02-13T20:55:14.579Z,10.13
2024-02-13T20:57:43.446Z,13.60
2024-02-13T21:00:14.454Z,11.33
2024-02-13T21:02:42.185Z,13.80
2024-02-13T21:05:10.866Z,22.27
2024-02-13T21:07:37.634Z,35.00
2024-02-13T21:10:04.892Z,26.93
2024-02-13T21:12:32.130Z,20.03
2024-02-13T21:14:59.471Z,18.43
2024-02-13T21:17:28.262Z,11.43
2024-02-13T21:19:58.660Z,13.03
2024-02-13T21:22:43.973Z,9.30
2024-02-13T21:25:10.897Z,6.83
2024-02-13T21:27:37.749Z,9.73
2024-02-13T21:30:05.451Z,7.03
2024-02-13T21:32:32.717Z,9.03
2024-02-13T21:35:00.000Z,6.87
2024-02-13T21:37:26.878Z,5.57
2024-02-13T21:39:53.802Z,6.50
2024-02-13T21:42:21.288Z,8.03
2024-02-13T21:44:48.125Z,6.50
2024-02-13T21:47:15.701Z,10.50
2024-02-13T21:49:42.627Z,5.87
2024-02-13T21:52:09.809Z,5.07
2024-02-13T21:54:37.896Z,6.43
2024-02-13T21:57:07.665Z,7.37
2024-02-13T21:59:34.834Z,4.93
2024-02-13T22:02:01.842Z,4.97
2024-02-13T22:04:31.426Z,4.60
2024-02-13T22:07:01.496Z,5.60
2024-02-13T22:09:28.523Z,5.77
2024-02-13T22:11:55.451Z,5.97
2024-02-13T22:14:22.522Z,5.47
2024-02-13T22:16:49.519Z,4.73
2024-02-13T22:19:17.103Z,5.63
2024-02-13T22:21:44.015Z,5.63
2024-02-13T22:24:11.099Z,7.47
2024-02-13T22:26:41.216Z,6.27
2024-02-13T22:29:09.001Z,4.50
2024-02-13T22:31:36.164Z,5.80
2024-02-13T22:34:03.783Z,5.40
2024-02-13T22:36:30.992Z,5.90
2024-02-13T22:39:00.438Z,7.23
2024-02-13T22:41:27.324Z,8.27
2024-02-13T22:43:54.164Z,6.27
2024-02-13T22:46:25.181Z,5.43
2024-02-13T22:48:53.160Z,7.17
2024-02-13T22:51:20.144Z,7.90
2024-02-13T22:53:47.006Z,6.90
2024-02-13T22:56:13.872Z,7.13
2024-02-13T22:58:40.698Z,5.23
2024-02-13T23:01:07.548Z,5.20
2024-02-13T23:03:36.156Z,7.13
2024-02-13T23:06:05.061Z,5.00
2024-02-13T23:08:32.676Z,6.40
2024-02-13T23:10:59.992Z,7.37
2024-02-13T23:13:33.470Z,5.23
2024-02-13T23:16:07.749Z,4.73
2024-02-13T23:18:35.699Z,5.17
2024-02-13T23:21:03.888Z,7.00
2024-02-13T23:23:31.294Z,6.07
2024-02-13T23:25:59.234Z,5.43
2024-02-13T23:28:26.004Z,4.50
2024-02-13T23:30:52.879Z,4.23
2024-02-13T23:33:20.079Z,6.50
2024-02-13T23:35:47.427Z,5.97
2024-02-13T23:38:14.337Z,5.27
2024-02-13T23:40:41.064Z,5.73
2024-02-13T23:43:08.033Z,6.87
2024-02-13T23:45:35.116Z,6.13
2024-02-13T23:48:02.110Z,5.07
2024-02-13T23:50:29.151Z,5.17
2024-02-13T23:52:56.860Z,7.97
2024-02-13T23:55:28.131Z,6.90
2024-02-13T23:57:54.973Z,5.00
